Camden, Michigan
Current Conditions -  °F | °C
As of 3:35 PM on Thursday 29 Jan 2015 (Local Time) from KJYM Reporting Station
Light Snow Light Snow  
Wind Chill: 24°   Ceiling: 1000
Heat Index: 33°   Visibility: 3mi
Dew Point: 31°   Wind: 14mph
Humidity: 92%   Direction: 310°NW
Pressure: 29.79"   Gusts: NA
Location:  41.75°N, 84.76°W
Report Text: KJYM 292035Z AUTO 31012KT 3SM -SN OVC010 01/00 A2979 RMK AO2 T00071004
Loading
Personal Weather Stations






























Interactive Weather Map New forecast layout! Learn more

10-Day Weather Forecast

Advertisements
Track Severe Weather on mobile